sensor_id;sensor_type;location;lat;lon;timestamp;pressure;altitude;pressure_sealevel;temperature;humidity
63306;BME280;50735;52.060;1.248;2023-04-25T00:00:01;101159.31;;;5.75;47.07
63306;BME280;50735;52.060;1.248;2023-04-25T00:02:33;101160.36;;;5.72;46.94
63306;BME280;50735;52.060;1.248;2023-04-25T00:05:05;101162.03;;;5.63;46.90
63306;BME280;50735;52.060;1.248;2023-04-25T00:07:38;101163.26;;;5.58;47.10
63306;BME280;50735;52.060;1.248;2023-04-25T00:10:10;101165.87;;;5.55;47.14
63306;BME280;50735;52.060;1.248;2023-04-25T00:12:41;101162.46;;;5.52;47.30
63306;BME280;50735;52.060;1.248;2023-04-25T00:15:13;101162.52;;;5.47;47.50
63306;BME280;50735;52.060;1.248;2023-04-25T00:17:46;101164.93;;;5.39;47.59
63306;BME280;50735;52.060;1.248;2023-04-25T00:20:19;101161.85;;;5.54;47.69
63306;BME280;50735;52.060;1.248;2023-04-25T00:22:51;101161.17;;;5.36;47.65
63306;BME280;50735;52.060;1.248;2023-04-25T00:25:23;101161.62;;;5.32;47.61
63306;BME280;50735;52.060;1.248;2023-04-25T00:27:55;101167.49;;;5.27;47.57
63306;BME280;50735;52.060;1.248;2023-04-25T00:30:27;101165.30;;;5.40;47.66
63306;BME280;50735;52.060;1.248;2023-04-25T00:32:59;101166.88;;;5.59;47.59
63306;BME280;50735;52.060;1.248;2023-04-25T00:35:30;101167.33;;;5.13;47.60
63306;BME280;50735;52.060;1.248;2023-04-25T00:38:02;101172.42;;;5.24;47.80
63306;BME280;50735;52.060;1.248;2023-04-25T00:40:35;101170.33;;;5.44;47.77
63306;BME280;50735;52.060;1.248;2023-04-25T00:43:06;101170.70;;;4.99;47.84
63306;BME280;50735;52.060;1.248;2023-04-25T00:45:39;101171.06;;;5.28;47.80
63306;BME280;50735;52.060;1.248;2023-04-25T00:48:11;101169.59;;;5.22;47.80
63306;BME280;50735;52.060;1.248;2023-04-25T00:50:51;101171.53;;;5.21;47.82
63306;BME280;50735;52.060;1.248;2023-04-25T00:53:24;101170.21;;;4.72;47.96
63306;BME280;50735;52.060;1.248;2023-04-25T00:55:56;101176.17;;;5.10;48.04
63306;BME280;50735;52.060;1.248;2023-04-25T00:58:28;101173.16;;;5.08;48.06
63306;BME280;50735;52.060;1.248;2023-04-25T01:01:00;101170.83;;;4.99;48.20
63306;BME280;50735;52.060;1.248;2023-04-25T01:03:33;101173.74;;;5.02;48.20
63306;BME280;50735;52.060;1.248;2023-04-25T01:06:07;101177.94;;;4.99;48.34
63306;BME280;50735;52.060;1.248;2023-04-25T01:08:39;101184.11;;;4.94;48.33
63306;BME280;50735;52.060;1.248;2023-04-25T01:11:10;101178.15;;;4.90;48.14
63306;BME280;50735;52.060;1.248;2023-04-25T01:13:43;101183.43;;;4.84;48.25
63306;BME280;50735;52.060;1.248;2023-04-25T01:16:15;101182.65;;;4.80;48.38
63306;BME280;50735;52.060;1.248;2023-04-25T01:18:46;101182.62;;;4.80;48.27
63306;BME280;50735;52.060;1.248;2023-04-25T01:21:19;101184.37;;;4.79;48.29
63306;BME280;50735;52.060;1.248;2023-04-25T01:23:50;101185.66;;;4.77;48.33
63306;BME280;50735;52.060;1.248;2023-04-25T01:26:23;101183.68;;;4.74;48.35
63306;BME280;50735;52.060;1.248;2023-04-25T01:28:55;101184.36;;;4.74;48.40
63306;BME280;50735;52.060;1.248;2023-04-25T01:31:28;101182.41;;;4.67;48.46
63306;BME280;50735;52.060;1.248;2023-04-25T01:34:01;101180.79;;;4.63;48.36
63306;BME280;50735;52.060;1.248;2023-04-25T01:36:33;101181.42;;;4.60;48.45
63306;BME280;50735;52.060;1.248;2023-04-25T01:39:06;101188.34;;;4.62;48.13
63306;BME280;50735;52.060;1.248;2023-04-25T01:41:37;101189.96;;;4.75;48.47
63306;BME280;50735;52.060;1.248;2023-04-25T01:44:09;101195.33;;;4.56;48.51
63306;BME280;50735;52.060;1.248;2023-04-25T01:46:41;101196.80;;;4.08;48.73
63306;BME280;50735;52.060;1.248;2023-04-25T01:49:13;101204.74;;;4.29;48.80
63306;BME280;50735;52.060;1.248;2023-04-25T01:51:45;101206.80;;;4.33;48.57
63306;BME280;50735;52.060;1.248;2023-04-25T01:54:18;101211.99;;;4.18;48.76
63306;BME280;50735;52.060;1.248;2023-04-25T01:56:50;101217.51;;;4.37;48.70
63306;BME280;50735;52.060;1.248;2023-04-25T01:59:22;101215.02;;;4.15;48.72
63306;BME280;50735;52.060;1.248;2023-04-25T02:01:54;101214.83;;;4.35;48.65
63306;BME280;50735;52.060;1.248;2023-04-25T02:04:26;101210.71;;;4.35;48.63
63306;BME280;50735;52.060;1.248;2023-04-25T02:06:58;101211.02;;;4.36;48.67
63306;BME280;50735;52.060;1.248;2023-04-25T02:09:30;101211.31;;;4.49;48.77
63306;BME280;50735;52.060;1.248;2023-04-25T02:12:02;101210.33;;;4.11;48.93
63306;BME280;50735;52.060;1.248;2023-04-25T02:14:34;101205.28;;;4.27;48.85
63306;BME280;50735;52.060;1.248;2023-04-25T02:17:06;101200.19;;;4.09;48.92
63306;BME280;50735;52.060;1.248;2023-04-25T02:19:38;101197.45;;;4.20;48.78
63306;BME280;50735;52.060;1.248;2023-04-25T02:22:10;101195.57;;;4.12;49.22
63306;BME280;50735;52.060;1.248;2023-04-25T02:24:42;101202.92;;;4.14;49.29
63306;BME280;50735;52.060;1.248;2023-04-25T02:27:14;101201.16;;;4.09;49.25
63306;BME280;50735;52.060;1.248;2023-04-25T02:29:46;101204.14;;;3.93;49.08
63306;BME280;50735;52.060;1.248;2023-04-25T02:32:18;101212.03;;;4.30;49.14
63306;BME280;50735;52.060;1.248;2023-04-25T02:34:50;101220.85;;;4.27;49.20
63306;BME280;50735;52.060;1.248;2023-04-25T02:37:22;101225.19;;;4.24;49.18
63306;BME280;50735;52.060;1.248;2023-04-25T02:39:54;101224.35;;;3.93;49.50
63306;BME280;50735;52.060;1.248;2023-04-25T02:42:26;101225.15;;;3.92;49.61
63306;BME280;50735;52.060;1.248;2023-04-25T02:44:57;101222.88;;;3.94;49.61
63306;BME280;50735;52.060;1.248;2023-04-25T02:47:29;101224.24;;;4.09;49.80
63306;BME280;50735;52.060;1.248;2023-04-25T02:50:01;101225.23;;;3.87;49.74
63306;BME280;50735;52.060;1.248;2023-04-25T02:52:33;101227.81;;;4.05;49.79
63306;BME280;50735;52.060;1.248;2023-04-25T02:55:06;101223.55;;;3.98;50.00
63306;BME280;50735;52.060;1.248;2023-04-25T02:57:38;101228.15;;;4.02;49.82
63306;BME280;50735;52.060;1.248;2023-04-25T03:00:11;101229.76;;;3.98;50.04
63306;BME280;50735;52.060;1.248;2023-04-25T03:02:43;101233.44;;;4.03;49.96
63306;BME280;50735;52.060;1.248;2023-04-25T03:05:15;101232.87;;;4.04;50.00
63306;BME280;50735;52.060;1.248;2023-04-25T03:07:47;101235.19;;;4.02;50.05
63306;BME280;50735;52.060;1.248;2023-04-25T03:10:19;101234.25;;;3.81;50.00
63306;BME280;50735;52.060;1.248;2023-04-25T03:12:51;101233.49;;;3.98;50.00
63306;BME280;50735;52.060;1.248;2023-04-25T03:15:23;101236.71;;;3.92;50.05
63306;BME280;50735;52.060;1.248;2023-04-25T03:17:55;101234.37;;;3.91;50.03
63306;BME280;50735;52.060;1.248;2023-04-25T03:20:27;101235.67;;;3.91;50.01
63306;BME280;50735;52.060;1.248;2023-04-25T03:22:59;101234.77;;;3.88;50.06
63306;BME280;50735;52.060;1.248;2023-04-25T03:25:31;101233.88;;;3.86;49.94
63306;BME280;50735;52.060;1.248;2023-04-25T03:28:03;101233.58;;;3.65;49.83
63306;BME280;50735;52.060;1.248;2023-04-25T03:30:35;101232.61;;;3.81;50.02
63306;BME280;50735;52.060;1.248;2023-04-25T03:33:07;101235.82;;;3.77;49.95
63306;BME280;50735;52.060;1.248;2023-04-25T03:35:39;101238.43;;;3.75;49.99
63306;BME280;50735;52.060;1.248;2023-04-25T03:38:11;101240.74;;;3.54;50.02
63306;BME280;50735;52.060;1.248;2023-04-25T03:40:43;101242.58;;;3.68;49.89
63306;BME280;50735;52.060;1.248;2023-04-25T03:43:15;101244.68;;;3.65;50.16
63306;BME280;50735;52.060;1.248;2023-04-25T03:45:46;101245.77;;;3.42;50.18
63306;BME280;50735;52.060;1.248;2023-04-25T03:48:18;101244.09;;;3.55;50.30
63306;BME280;50735;52.060;1.248;2023-04-25T03:50:50;101248.88;;;3.54;50.24
63306;BME280;50735;52.060;1.248;2023-04-25T03:53:22;101248.53;;;3.50;50.38
63306;BME280;50735;52.060;1.248;2023-04-25T03:55:54;101251.07;;;3.48;50.12
63306;BME280;50735;52.060;1.248;2023-04-25T03:58:26;101251.41;;;3.45;50.38
63306;BME280;50735;52.060;1.248;2023-04-25T04:00:58;101250.46;;;3.44;50.42
63306;BME280;50735;52.060;1.248;2023-04-25T04:03:30;101254.74;;;3.41;50.52
63306;BME280;50735;52.060;1.248;2023-04-25T04:06:03;101256.73;;;3.42;50.29
63306;BME280;50735;52.060;1.248;2023-04-25T04:08:35;101264.70;;;3.34;50.37
63306;BME280;50735;52.060;1.248;2023-04-25T04:11:07;101266.01;;;3.30;50.67
63306;BME280;50735;52.060;1.248;2023-04-25T04:13:39;101273.73;;;3.27;50.75
63306;BME280;50735;52.060;1.248;2023-04-25T04:16:11;101273.15;;;3.28;50.86
63306;BME280;50735;52.060;1.248;2023-04-25T04:18:44;101270.63;;;3.24;50.87
63306;BME280;50735;52.060;1.248;2023-04-25T04:21:16;101271.11;;;3.24;50.84
63306;BME280;50735;52.060;1.248;2023-04-25T04:23:48;101271.12;;;3.23;50.91
63306;BME280;50735;52.060;1.248;2023-04-25T04:26:20;101267.79;;;3.24;51.06
63306;BME280;50735;52.060;1.248;2023-04-25T04:28:52;101268.31;;;3.23;51.02
63306;BME280;50735;52.060;1.248;2023-04-25T04:31:25;101268.95;;;3.16;51.11
63306;BME280;50735;52.060;1.248;2023-04-25T04:33:57;101275.03;;;3.19;51.04
63306;BME280;50735;52.060;1.248;2023-04-25T04:36:29;101280.88;;;3.41;51.11
63306;BME280;50735;52.060;1.248;2023-04-25T04:39:01;101278.64;;;3.40;51.20
63306;BME280;50735;52.060;1.248;2023-04-25T04:41:33;101282.77;;;3.19;51.26
63306;BME280;50735;52.060;1.248;2023-04-25T04:44:05;101284.24;;;3.21;51.33
63306;BME280;50735;52.060;1.248;2023-04-25T04:46:37;101288.57;;;3.23;51.47
63306;BME280;50735;52.060;1.248;2023-04-25T04:49:09;101293.94;;;3.27;51.61
63306;BME280;50735;52.060;1.248;2023-04-25T04:51:41;101299.34;;;3.24;51.68
63306;BME280;50735;52.060;1.248;2023-04-25T04:54:13;101308.18;;;3.29;51.67
63306;BME280;50735;52.060;1.248;2023-04-25T04:56:45;101311.09;;;3.28;51.66
63306;BME280;50735;52.060;1.248;2023-04-25T04:59:17;101312.81;;;3.31;51.65
63306;BME280;50735;52.060;1.248;2023-04-25T05:01:49;101312.43;;;3.53;51.69
63306;BME280;50735;52.060;1.248;2023-04-25T05:04:21;101316.96;;;3.38;51.59
63306;BME280;50735;52.060;1.248;2023-04-25T05:06:53;101324.39;;;3.37;51.64
63306;BME280;50735;52.060;1.248;2023-04-25T05:09:25;101326.97;;;3.36;51.85
63306;BME280;50735;52.060;1.248;2023-04-25T05:11:57;101330.49;;;3.37;51.93
63306;BME280;50735;52.060;1.248;2023-04-25T05:14:29;101329.35;;;3.42;51.97
63306;BME280;50735;52.060;1.248;2023-04-25T05:17:01;101328.29;;;3.73;52.33
63306;BME280;50735;52.060;1.248;2023-04-25T05:19:32;101330.56;;;3.39;52.19
63306;BME280;50735;52.060;1.248;2023-04-25T05:22:04;101333.55;;;3.45;52.33
63306;BME280;50735;52.060;1.248;2023-04-25T05:24:36;101339.89;;;3.43;52.45
63306;BME280;50735;52.060;1.248;2023-04-25T05:27:08;101342.71;;;3.46;52.37
63306;BME280;50735;52.060;1.248;2023-04-25T05:29:40;101341.35;;;3.53;52.46
63306;BME280;50735;52.060;1.248;2023-04-25T05:32:12;101345.09;;;3.59;52.37
63306;BME280;50735;52.060;1.248;2023-04-25T05:34:44;101351.52;;;3.69;52.50
63306;BME280;50735;52.060;1.248;2023-04-25T05:37:16;101353.71;;;3.71;52.63
63306;BME280;50735;52.060;1.248;2023-04-25T05:39:48;101358.91;;;3.57;52.47
63306;BME280;50735;52.060;1.248;2023-04-25T05:42:20;101364.01;;;3.58;52.70
63306;BME280;50735;52.060;1.248;2023-04-25T05:44:52;101363.00;;;3.82;52.60
63306;BME280;50735;52.060;1.248;2023-04-25T05:47:24;101361.66;;;3.90;52.45
63306;BME280;50735;52.060;1.248;2023-04-25T05:49:56;101361.96;;;3.95;52.59
63306;BME280;50735;52.060;1.248;2023-04-25T05:52:28;101358.55;;;3.78;52.50
63306;BME280;50735;52.060;1.248;2023-04-25T05:54:59;101358.18;;;3.90;52.73
63306;BME280;50735;52.060;1.248;2023-04-25T05:57:31;101362.76;;;3.82;52.58
63306;BME280;50735;52.060;1.248;2023-04-25T06:00:05;101365.59;;;4.03;53.75
63306;BME280;50735;52.060;1.248;2023-04-25T06:02:37;101368.45;;;3.91;52.84
63306;BME280;50735;52.060;1.248;2023-04-25T06:05:09;101370.60;;;3.67;52.61
63306;BME280;50735;52.060;1.248;2023-04-25T06:07:41;101378.17;;;3.92;52.70
63306;BME280;50735;52.060;1.248;2023-04-25T06:10:13;101376.97;;;4.06;52.46
63306;BME280;50735;52.060;1.248;2023-04-25T06:12:45;101378.81;;;4.18;52.35
63306;BME280;50735;52.060;1.248;2023-04-25T06:15:17;101383.42;;;4.33;55.14
63306;BME280;50735;52.060;1.248;2023-04-25T06:17:49;101386.02;;;4.51;52.47
63306;BME280;50735;52.060;1.248;2023-04-25T06:20:21;101384.93;;;4.35;52.04
63306;BME280;50735;52.060;1.248;2023-04-25T06:22:53;101387.14;;;4.10;52.43
63306;BME280;50735;52.060;1.248;2023-04-25T06:25:25;101395.63;;;4.40;52.59
63306;BME280;50735;52.060;1.248;2023-04-25T06:27:57;101397.35;;;4.19;52.50
63306;BME280;50735;52.060;1.248;2023-04-25T06:30:29;101409.24;;;4.42;52.62
63306;BME280;50735;52.060;1.248;2023-04-25T06:33:01;101415.16;;;4.25;52.94
63306;BME280;50735;52.060;1.248;2023-04-25T06:35:33;101418.91;;;4.29;52.69
63306;BME280;50735;52.060;1.248;2023-04-25T06:38:05;101410.93;;;4.76;51.92
63306;BME280;50735;52.060;1.248;2023-04-25T06:40:37;101406.65;;;5.34;50.14
63306;BME280;50735;52.060;1.248;2023-04-25T06:43:08;101404.36;;;5.36;48.98
63306;BME280;50735;52.060;1.248;2023-04-25T06:45:40;101409.09;;;6.18;48.36
63306;BME280;50735;52.060;1.248;2023-04-25T06:48:12;101412.07;;;6.57;47.41
63306;BME280;50735;52.060;1.248;2023-04-25T06:50:44;101410.19;;;7.42;46.70
63306;BME280;50735;52.060;1.248;2023-04-25T06:53:16;101406.40;;;7.68;45.05
63306;BME280;50735;52.060;1.248;2023-04-25T06:55:48;101404.51;;;8.46;44.23
63306;BME280;50735;52.060;1.248;2023-04-25T06:58:20;101398.69;;;8.80;42.79
63306;BME280;50735;52.060;1.248;2023-04-25T07:00:52;101405.90;;;9.03;42.54
63306;BME280;50735;52.060;1.248;2023-04-25T07:03:24;101408.79;;;8.94;41.80
63306;BME280;50735;52.060;1.248;2023-04-25T07:05:56;101414.54;;;8.76;41.74
63306;BME280;50735;52.060;1.248;2023-04-25T07:08:28;101415.16;;;8.72;42.01
63306;BME280;50735;52.060;1.248;2023-04-25T07:11:00;101419.20;;;8.59;42.23
63306;BME280;50735;52.060;1.248;2023-04-25T07:13:32;101423.94;;;8.53;41.96
63306;BME280;50735;52.060;1.248;2023-04-25T07:16:04;101420.84;;;8.48;41.70
63306;BME280;50735;52.060;1.248;2023-04-25T07:18:36;101424.80;;;8.49;41.81
63306;BME280;50735;52.060;1.248;2023-04-25T07:21:08;101428.14;;;8.29;42.87
63306;BME280;50735;52.060;1.248;2023-04-25T07:23:40;101430.08;;;8.26;42.91
63306;BME280;50735;52.060;1.248;2023-04-25T07:26:12;101430.45;;;8.38;42.80
63306;BME280;50735;52.060;1.248;2023-04-25T07:28:43;101430.53;;;8.36;43.18
63306;BME280;50735;52.060;1.248;2023-04-25T07:31:15;101433.12;;;8.43;42.65
63306;BME280;50735;52.060;1.248;2023-04-25T07:33:47;101436.91;;;8.64;42.12
63306;BME280;50735;52.060;1.248;2023-04-25T07:36:19;101437.82;;;8.85;40.85
63306;BME280;50735;52.060;1.248;2023-04-25T07:38:51;101436.64;;;8.95;41.01
63306;BME280;50735;52.060;1.248;2023-04-25T07:41:22;101438.16;;;8.88;40.96
63306;BME280;50735;52.060;1.248;2023-04-25T07:43:54;101440.71;;;9.10;41.03
63306;BME280;50735;52.060;1.248;2023-04-25T07:46:26;101441.06;;;9.29;40.93
63306;BME280;50735;52.060;1.248;2023-04-25T07:48:58;101448.91;;;9.16;40.78
63306;BME280;50735;52.060;1.248;2023-04-25T07:51:30;101450.68;;;9.36;40.02
63306;BME280;50735;52.060;1.248;2023-04-25T07:54:01;101445.89;;;9.37;40.22
63306;BME280;50735;52.060;1.248;2023-04-25T07:56:33;101450.02;;;9.69;40.00
63306;BME280;50735;52.060;1.248;2023-04-25T07:59:05;101459.47;;;9.78;40.11
63306;BME280;50735;52.060;1.248;2023-04-25T08:01:37;101468.49;;;10.00;39.93
63306;BME280;50735;52.060;1.248;2023-04-25T08:04:09;101473.43;;;9.76;39.87
63306;BME280;50735;52.060;1.248;2023-04-25T08:06:41;101469.20;;;9.77;39.70
63306;BME280;50735;52.060;1.248;2023-04-25T08:09:12;101474.99;;;9.95;39.93
63306;BME280;50735;52.060;1.248;2023-04-25T08:11:45;101480.06;;;10.21;39.22
63306;BME280;50735;52.060;1.248;2023-04-25T08:14:16;101486.92;;;9.92;39.04
63306;BME280;50735;52.060;1.248;2023-04-25T08:16:48;101489.53;;;9.13;39.82
63306;BME280;50735;52.060;1.248;2023-04-25T08:19:20;101493.86;;;9.64;39.46
63306;BME280;50735;52.060;1.248;2023-04-25T08:21:52;101500.96;;;9.80;39.73
63306;BME280;50735;52.060;1.248;2023-04-25T08:24:24;101493.93;;;9.98;38.73
63306;BME280;50735;52.060;1.248;2023-04-25T08:26:55;101492.25;;;9.92;39.30
63306;BME280;50735;52.060;1.248;2023-04-25T08:29:27;101498.12;;;10.62;39.04
63306;BME280;50735;52.060;1.248;2023-04-25T08:31:59;101502.48;;;10.22;38.55
63306;BME280;50735;52.060;1.248;2023-04-25T08:34:31;101507.15;;;10.93;38.54
63306;BME280;50735;52.060;1.248;2023-04-25T08:37:03;101508.38;;;11.13;36.97
63306;BME280;50735;52.060;1.248;2023-04-25T08:39:35;101512.30;;;10.77;36.78
63306;BME280;50735;52.060;1.248;2023-04-25T08:42:07;101514.85;;;10.76;37.42
63306;BME280;50735;52.060;1.248;2023-04-25T08:44:39;101514.44;;;11.18;36.88
63306;BME280;50735;52.060;1.248;2023-04-25T08:47:11;101518.45;;;11.13;36.45
63306;BME280;50735;52.060;1.248;2023-04-25T08:49:45;101519.61;;;10.47;37.35
63306;BME280;50735;52.060;1.248;2023-04-25T08:52:21;101531.01;;;11.08;37.26
63306;BME280;50735;52.060;1.248;2023-04-25T08:54:55;101535.38;;;11.29;35.17
63306;BME280;50735;52.060;1.248;2023-04-25T08:57:29;101536.15;;;12.03;35.59
63306;BME280;50735;52.060;1.248;2023-04-25T09:00:02;101536.77;;;11.57;34.86
63306;BME280;50735;52.060;1.248;2023-04-25T09:02:34;101539.61;;;11.65;35.14
63306;BME280;50735;52.060;1.248;2023-04-25T09:05:08;101537.16;;;11.23;35.40
63306;BME280;50735;52.060;1.248;2023-04-25T09:07:40;101546.27;;;11.07;35.33
63306;BME280;50735;52.060;1.248;2023-04-25T09:10:12;101541.94;;;10.75;36.64
63306;BME280;50735;52.060;1.248;2023-04-25T09:12:44;101540.92;;;10.67;36.91
63306;BME280;50735;52.060;1.248;2023-04-25T09:15:16;101539.87;;;10.46;37.58
63306;BME280;50735;52.060;1.248;2023-04-25T09:17:55;101541.43;;;10.73;36.19
63306;BME280;50735;52.060;1.248;2023-04-25T09:20:28;101540.28;;;10.85;36.18
63306;BME280;50735;52.060;1.248;2023-04-25T09:23:01;101539.59;;;11.21;37.44
63306;BME280;50735;52.060;1.248;2023-04-25T09:25:34;101542.04;;;11.26;36.41
63306;BME280;50735;52.060;1.248;2023-04-25T09:28:07;101536.62;;;12.14;35.31
63306;BME280;50735;52.060;1.248;2023-04-25T09:30:38;101539.83;;;12.30;33.81
63306;BME280;50735;52.060;1.248;2023-04-25T09:33:11;101540.42;;;12.46;33.06
63306;BME280;50735;52.060;1.248;2023-04-25T09:35:43;101542.36;;;12.62;33.88
63306;BME280;50735;52.060;1.248;2023-04-25T09:38:18;101542.95;;;13.12;32.87
63306;BME280;50735;52.060;1.248;2023-04-25T09:40:51;101541.54;;;12.80;32.64
63306;BME280;50735;52.060;1.248;2023-04-25T09:43:25;101544.12;;;12.31;32.71
63306;BME280;50735;52.060;1.248;2023-04-25T09:45:57;101548.06;;;10.95;33.91
63306;BME280;50735;52.060;1.248;2023-04-25T09:48:29;101553.46;;;9.60;35.55
63306;BME280;50735;52.060;1.248;2023-04-25T09:51:05;101558.11;;;10.21;35.23
63306;BME280;50735;52.060;1.248;2023-04-25T09:53:39;101567.25;;;10.50;36.30
63306;BME280;50735;52.060;1.248;2023-04-25T09:56:12;101571.77;;;9.69;37.05
63306;BME280;50735;52.060;1.248;2023-04-25T09:58:44;101583.14;;;9.70;36.56
63306;BME280;50735;52.060;1.248;2023-04-25T10:01:16;101585.50;;;9.75;37.02
63306;BME280;50735;52.060;1.248;2023-04-25T10:03:50;101584.55;;;9.40;37.18
63306;BME280;50735;52.060;1.248;2023-04-25T10:06:24;101588.39;;;9.64;37.06
63306;BME280;50735;52.060;1.248;2023-04-25T10:08:57;101587.90;;;9.41;36.58
63306;BME280;50735;52.060;1.248;2023-04-25T10:11:30;101591.62;;;9.36;37.24
63306;BME280;50735;52.060;1.248;2023-04-25T10:14:03;101589.39;;;9.61;37.54
63306;BME280;50735;52.060;1.248;2023-04-25T10:16:36;101590.41;;;9.86;36.84
63306;BME280;50735;52.060;1.248;2023-04-25T10:19:09;101591.36;;;10.17;37.02
63306;BME280;50735;52.060;1.248;2023-04-25T10:21:48;101590.85;;;10.68;35.81
63306;BME280;50735;52.060;1.248;2023-04-25T10:24:22;101589.72;;;10.75;35.43
63306;BME280;50735;52.060;1.248;2023-04-25T10:26:56;101594.82;;;10.80;35.62
63306;BME280;50735;52.060;1.248;2023-04-25T10:29:28;101595.67;;;10.82;34.98
63306;BME280;50735;52.060;1.248;2023-04-25T10:32:00;101597.89;;;11.19;37.02
63306;BME280;50735;52.060;1.248;2023-04-25T10:34:40;101595.36;;;11.70;33.49
63306;BME280;50735;52.060;1.248;2023-04-25T10:37:13;101599.06;;;11.27;34.09
63306;BME280;50735;52.060;1.248;2023-04-25T10:39:45;101597.16;;;11.22;34.67
63306;BME280;50735;52.060;1.248;2023-04-25T10:42:17;101597.27;;;11.03;34.14
63306;BME280;50735;52.060;1.248;2023-04-25T10:45:02;101595.18;;;11.51;34.47
63306;BME280;50735;52.060;1.248;2023-04-25T10:47:38;101596.41;;;11.99;33.53
63306;BME280;50735;52.060;1.248;2023-04-25T10:50:14;101595.43;;;11.92;33.63
63306;BME280;50735;52.060;1.248;2023-04-25T10:52:47;101598.02;;;12.26;33.62
63306;BME280;50735;52.060;1.248;2023-04-25T10:55:20;101597.25;;;12.52;33.37
63306;BME280;50735;52.060;1.248;2023-04-25T10:57:52;101593.72;;;12.19;32.63
63306;BME280;50735;52.060;1.248;2023-04-25T11:00:25;101594.22;;;11.80;37.60
63306;BME280;50735;52.060;1.248;2023-04-25T11:02:58;101598.70;;;11.51;34.15
63306;BME280;50735;52.060;1.248;2023-04-25T11:05:33;101601.04;;;11.13;34.89
63306;BME280;50735;52.060;1.248;2023-04-25T11:08:11;101600.82;;;10.68;35.41
63306;BME280;50735;52.060;1.248;2023-04-25T11:10:44;101604.17;;;10.00;37.10
63306;BME280;50735;52.060;1.248;2023-04-25T11:13:16;101602.04;;;9.32;39.25
63306;BME280;50735;52.060;1.248;2023-04-25T11:15:51;101598.69;;;9.05;41.00
63306;BME280;50735;52.060;1.248;2023-04-25T11:18:26;101601.82;;;8.68;43.23
63306;BME280;50735;52.060;1.248;2023-04-25T11:20:57;101600.68;;;8.72;42.65
63306;BME280;50735;52.060;1.248;2023-04-25T11:23:30;101602.92;;;8.31;43.53
63306;BME280;50735;52.060;1.248;2023-04-25T11:26:02;101607.50;;;7.94;45.15
63306;BME280;50735;52.060;1.248;2023-04-25T11:28:34;101609.55;;;7.37;46.92
63306;BME280;50735;52.060;1.248;2023-04-25T11:31:06;101611.50;;;6.93;47.41
63306;BME280;50735;52.060;1.248;2023-04-25T11:33:38;101610.20;;;6.87;48.15
63306;BME280;50735;52.060;1.248;2023-04-25T11:36:10;101605.29;;;6.26;48.75
63306;BME280;50735;52.060;1.248;2023-04-25T11:38:41;101605.09;;;6.10;48.63
63306;BME280;50735;52.060;1.248;2023-04-25T11:41:13;101608.01;;;5.98;48.37
63306;BME280;50735;52.060;1.248;2023-04-25T11:43:45;101605.18;;;6.45;47.68
63306;BME280;50735;52.060;1.248;2023-04-25T11:46:17;101604.00;;;7.17;46.76
63306;BME280;50735;52.060;1.248;2023-04-25T11:48:49;101604.44;;;8.05;45.90
63306;BME280;50735;52.060;1.248;2023-04-25T11:51:21;101602.87;;;8.02;45.15
63306;BME280;50735;52.060;1.248;2023-04-25T11:53:53;101598.71;;;8.33;44.13
63306;BME280;50735;52.060;1.248;2023-04-25T11:56:25;101599.40;;;8.58;43.79
63306;BME280;50735;52.060;1.248;2023-04-25T11:58:57;101604.10;;;8.20;42.96
63306;BME280;50735;52.060;1.248;2023-04-25T12:01:31;101602.80;;;8.78;42.55
63306;BME280;50735;52.060;1.248;2023-04-25T12:04:11;101595.99;;;9.18;40.88
63306;BME280;50735;52.060;1.248;2023-04-25T12:06:45;101597.17;;;9.89;39.20
63306;BME280;50735;52.060;1.248;2023-04-25T12:09:19;101588.64;;;10.07;37.52
63306;BME280;50735;52.060;1.248;2023-04-25T12:11:54;101593.50;;;10.43;36.65
63306;BME280;50735;52.060;1.248;2023-04-25T12:14:27;101591.78;;;10.80;35.69
63306;BME280;50735;52.060;1.248;2023-04-25T12:17:01;101590.45;;;11.21;35.26
63306;BME280;50735;52.060;1.248;2023-04-25T12:19:34;101598.34;;;11.56;34.39
63306;BME280;50735;52.060;1.248;2023-04-25T12:22:19;101594.81;;;12.04;33.58
63306;BME280;50735;52.060;1.248;2023-04-25T12:24:51;101598.46;;;11.93;34.15
63306;BME280;50735;52.060;1.248;2023-04-25T12:27:25;101597.56;;;11.87;34.70
63306;BME280;50735;52.060;1.248;2023-04-25T12:29:57;101603.14;;;10.91;34.61
63306;BME280;50735;52.060;1.248;2023-04-25T12:32:30;101609.58;;;9.70;36.14
63306;BME280;50735;52.060;1.248;2023-04-25T12:35:01;101606.56;;;9.38;36.47
63306;BME280;50735;52.060;1.248;2023-04-25T12:37:33;101607.90;;;9.45;35.90
63306;BME280;50735;52.060;1.248;2023-04-25T12:40:06;101602.19;;;10.48;35.63
63306;BME280;50735;52.060;1.248;2023-04-25T12:42:38;101605.81;;;11.00;34.99
63306;BME280;50735;52.060;1.248;2023-04-25T12:45:10;101610.09;;;11.36;34.44
63306;BME280;50735;52.060;1.248;2023-04-25T12:47:41;101611.43;;;11.12;34.39
63306;BME280;50735;52.060;1.248;2023-04-25T12:50:13;101608.29;;;11.33;33.58
63306;BME280;50735;52.060;1.248;2023-04-25T12:52:45;101610.79;;;11.16;34.49
63306;BME280;50735;52.060;1.248;2023-04-25T12:55:18;101614.87;;;10.90;34.55
63306;BME280;50735;52.060;1.248;2023-04-25T12:57:49;101614.84;;;10.97;34.92
63306;BME280;50735;52.060;1.248;2023-04-25T13:00:21;101613.82;;;11.45;33.92
63306;BME280;50735;52.060;1.248;2023-04-25T13:02:53;101609.59;;;11.68;34.43
63306;BME280;50735;52.060;1.248;2023-04-25T13:05:25;101610.75;;;11.26;33.85
63306;BME280;50735;52.060;1.248;2023-04-25T13:07:57;101604.41;;;11.61;31.83
63306;BME280;50735;52.060;1.248;2023-04-25T13:10:29;101606.07;;;12.11;32.67
63306;BME280;50735;52.060;1.248;2023-04-25T13:13:00;101609.65;;;12.74;31.90
63306;BME280;50735;52.060;1.248;2023-04-25T13:15:32;101609.58;;;12.89;31.22
63306;BME280;50735;52.060;1.248;2023-04-25T13:18:04;101603.12;;;13.47;30.56
63306;BME280;50735;52.060;1.248;2023-04-25T13:20:37;101601.97;;;13.52;30.09
63306;BME280;50735;52.060;1.248;2023-04-25T13:23:08;101599.93;;;14.22;29.51